sensor_id;sensor_type;location;lat;lon;timestamp;P1;durP1;ratioP1;P2;durP2;ratioP2
22388;SDS011;11362;48.102;11.620;2023-08-08T00:01:32;3.97;;;0.87;;
22388;SDS011;11362;48.102;11.620;2023-08-08T00:06:56;1.83;;;0.80;;
22388;SDS011;11362;48.102;11.620;2023-08-08T00:09:21;3.53;;;1.10;;
22388;SDS011;11362;48.102;11.620;2023-08-08T00:11:46;1.87;;;1.10;;
22388;SDS011;11362;48.102;11.620;2023-08-08T00:14:12;2.77;;;1.37;;
22388;SDS011;11362;48.102;11.620;2023-08-08T00:16:37;1.87;;;0.70;;
22388;SDS011;11362;48.102;11.620;2023-08-08T00:19:02;2.20;;;0.80;;
22388;SDS011;11362;48.102;11.620;2023-08-08T00:21:27;1.50;;;0.80;;
22388;SDS011;11362;48.102;11.620;2023-08-08T00:23:53;2.07;;;0.77;;
22388;SDS011;11362;48.102;11.620;2023-08-08T00:26:18;1.80;;;0.70;;
22388;SDS011;11362;48.102;11.620;2023-08-08T00:28:43;1.20;;;0.77;;
22388;SDS011;11362;48.102;11.620;2023-08-08T00:33:41;1.70;;;0.80;;
22388;SDS011;11362;48.102;11.620;2023-08-08T00:36:06;3.27;;;1.30;;
22388;SDS011;11362;48.102;11.620;2023-08-08T00:38:31;1.23;;;0.60;;
22388;SDS011;11362;48.102;11.620;2023-08-08T00:40:57;1.93;;;0.87;;
22388;SDS011;11362;48.102;11.620;2023-08-08T00:43:22;6.47;;;0.93;;
22388;SDS011;11362;48.102;11.620;2023-08-08T00:45:47;3.30;;;1.00;;
22388;SDS011;11362;48.102;11.620;2023-08-08T00:48:12;0.73;;;0.73;;
22388;SDS011;11362;48.102;11.620;2023-08-08T00:50:41;1.87;;;0.83;;
22388;SDS011;11362;48.102;11.620;2023-08-08T00:53:07;1.53;;;0.70;;
22388;SDS011;11362;48.102;11.620;2023-08-08T00:55:33;2.17;;;0.93;;
22388;SDS011;11362;48.102;11.620;2023-08-08T01:00:52;3.00;;;0.60;;
22388;SDS011;11362;48.102;11.620;2023-08-08T01:03:17;1.43;;;0.83;;
22388;SDS011;11362;48.102;11.620;2023-08-08T01:05:58;1.13;;;0.77;;
22388;SDS011;11362;48.102;11.620;2023-08-08T01:08:31;2.07;;;0.80;;
22388;SDS011;11362;48.102;11.620;2023-08-08T01:11:00;0.93;;;0.80;;
22388;SDS011;11362;48.102;11.620;2023-08-08T01:13:27;0.70;;;0.60;;
22388;SDS011;11362;48.102;11.620;2023-08-08T01:15:55;0.97;;;0.80;;
22388;SDS011;11362;48.102;11.620;2023-08-08T01:18:22;2.53;;;0.57;;
22388;SDS011;11362;48.102;11.620;2023-08-08T01:20:48;2.53;;;0.77;;
22388;SDS011;11362;48.102;11.620;2023-08-08T01:23:27;2.10;;;0.90;;
22388;SDS011;11362;48.102;11.620;2023-08-08T01:26:25;1.00;;;0.90;;
22388;SDS011;11362;48.102;11.620;2023-08-08T01:28:54;0.83;;;0.50;;
22388;SDS011;11362;48.102;11.620;2023-08-08T01:31:20;0.83;;;0.70;;
22388;SDS011;11362;48.102;11.620;2023-08-08T01:33:45;1.10;;;0.50;;
22388;SDS011;11362;48.102;11.620;2023-08-08T01:36:13;2.80;;;0.80;;
22388;SDS011;11362;48.102;11.620;2023-08-08T01:38:47;1.20;;;0.70;;
22388;SDS011;11362;48.102;11.620;2023-08-08T01:41:16;0.57;;;0.57;;
22388;SDS011;11362;48.102;11.620;2023-08-08T01:43:42;1.20;;;1.10;;
22388;SDS011;11362;48.102;11.620;2023-08-08T01:46:08;1.57;;;0.57;;
22388;SDS011;11362;48.102;11.620;2023-08-08T01:48:34;1.53;;;0.70;;
22388;SDS011;11362;48.102;11.620;2023-08-08T01:54:07;1.60;;;0.50;;
22388;SDS011;11362;48.102;11.620;2023-08-08T01:56:32;0.80;;;0.73;;
22388;SDS011;11362;48.102;11.620;2023-08-08T01:58:57;0.97;;;0.50;;
22388;SDS011;11362;48.102;11.620;2023-08-08T02:01:23;1.13;;;0.60;;
22388;SDS011;11362;48.102;11.620;2023-08-08T02:03:48;1.00;;;0.53;;
22388;SDS011;11362;48.102;11.620;2023-08-08T02:06:13;0.77;;;0.77;;
22388;SDS011;11362;48.102;11.620;2023-08-08T02:08:38;1.07;;;0.60;;
22388;SDS011;11362;48.102;11.620;2023-08-08T02:11:04;1.70;;;0.63;;
22388;SDS011;11362;48.102;11.620;2023-08-08T02:13:29;1.17;;;0.60;;
22388;SDS011;11362;48.102;11.620;2023-08-08T02:15:54;1.67;;;0.87;;
22388;SDS011;11362;48.102;11.620;2023-08-08T02:21:03;1.03;;;0.57;;
22388;SDS011;11362;48.102;11.620;2023-08-08T02:23:28;0.57;;;0.47;;
22388;SDS011;11362;48.102;11.620;2023-08-08T02:25:54;0.90;;;0.57;;
22388;SDS011;11362;48.102;11.620;2023-08-08T02:28:19;0.70;;;0.70;;
22388;SDS011;11362;48.102;11.620;2023-08-08T02:30:44;0.70;;;0.70;;
22388;SDS011;11362;48.102;11.620;2023-08-08T02:33:09;1.33;;;0.70;;
22388;SDS011;11362;48.102;11.620;2023-08-08T02:35:36;0.63;;;0.40;;
22388;SDS011;11362;48.102;11.620;2023-08-08T02:38:01;1.70;;;0.40;;
22388;SDS011;11362;48.102;11.620;2023-08-08T02:40:27;1.70;;;0.40;;
22388;SDS011;11362;48.102;11.620;2023-08-08T02:42:52;2.37;;;0.60;;
22388;SDS011;11362;48.102;11.620;2023-08-08T02:48:30;0.40;;;0.40;;
22388;SDS011;11362;48.102;11.620;2023-08-08T02:50:55;0.40;;;0.40;;
22388;SDS011;11362;48.102;11.620;2023-08-08T02:53:21;1.13;;;0.73;;
22388;SDS011;11362;48.102;11.620;2023-08-08T02:55:46;0.70;;;0.70;;
22388;SDS011;11362;48.102;11.620;2023-08-08T02:58:12;0.87;;;0.40;;
22388;SDS011;11362;48.102;11.620;2023-08-08T03:00:37;1.13;;;0.50;;
22388;SDS011;11362;48.102;11.620;2023-08-08T03:03:02;0.50;;;0.50;;
22388;SDS011;11362;48.102;11.620;2023-08-08T03:05:28;0.80;;;0.50;;
22388;SDS011;11362;48.102;11.620;2023-08-08T03:07:53;0.50;;;0.50;;
22388;SDS011;11362;48.102;11.620;2023-08-08T03:10:18;0.50;;;0.50;;
22388;SDS011;11362;48.102;11.620;2023-08-08T03:15:27;0.53;;;0.53;;
22388;SDS011;11362;48.102;11.620;2023-08-08T03:17:52;0.53;;;0.53;;
22388;SDS011;11362;48.102;11.620;2023-08-08T03:20:17;0.50;;;0.50;;
22388;SDS011;11362;48.102;11.620;2023-08-08T03:22:43;0.97;;;0.50;;
22388;SDS011;11362;48.102;11.620;2023-08-08T03:25:08;0.73;;;0.50;;
22388;SDS011;11362;48.102;11.620;2023-08-08T03:27:33;0.50;;;0.50;;
22388;SDS011;11362;48.102;11.620;2023-08-08T03:29:59;0.70;;;0.30;;
22388;SDS011;11362;48.102;11.620;2023-08-08T03:32:24;1.37;;;0.50;;
22388;SDS011;11362;48.102;11.620;2023-08-08T03:34:49;0.87;;;0.50;;
22388;SDS011;11362;48.102;11.620;2023-08-08T03:37:15;0.30;;;0.30;;
22388;SDS011;11362;48.102;11.620;2023-08-08T03:42:17;1.47;;;0.57;;
22388;SDS011;11362;48.102;11.620;2023-08-08T03:44:42;0.47;;;0.47;;
22388;SDS011;11362;48.102;11.620;2023-08-08T03:47:08;0.50;;;0.50;;
22388;SDS011;11362;48.102;11.620;2023-08-08T03:49:33;0.43;;;0.43;;
22388;SDS011;11362;48.102;11.620;2023-08-08T03:51:58;0.40;;;0.40;;
22388;SDS011;11362;48.102;11.620;2023-08-08T03:54:23;0.40;;;0.40;;
22388;SDS011;11362;48.102;11.620;2023-08-08T03:56:49;0.40;;;0.40;;
22388;SDS011;11362;48.102;11.620;2023-08-08T03:59:14;0.50;;;0.50;;
22388;SDS011;11362;48.102;11.620;2023-08-08T04:01:39;0.63;;;0.63;;
22388;SDS011;11362;48.102;11.620;2023-08-08T04:04:05;0.33;;;0.33;;
22388;SDS011;11362;48.102;11.620;2023-08-08T04:09:44;0.30;;;0.30;;
22388;SDS011;11362;48.102;11.620;2023-08-08T04:12:09;0.40;;;0.40;;
22388;SDS011;11362;48.102;11.620;2023-08-08T04:14:35;0.97;;;0.57;;
22388;SDS011;11362;48.102;11.620;2023-08-08T04:17:00;0.50;;;0.50;;
22388;SDS011;11362;48.102;11.620;2023-08-08T04:19:25;0.43;;;0.43;;
22388;SDS011;11362;48.102;11.620;2023-08-08T04:21:50;0.50;;;0.50;;
22388;SDS011;11362;48.102;11.620;2023-08-08T04:24:16;0.40;;;0.40;;
22388;SDS011;11362;48.102;11.620;2023-08-08T04:26:41;0.40;;;0.40;;
22388;SDS011;11362;48.102;11.620;2023-08-08T04:29:06;1.70;;;0.60;;
22388;SDS011;11362;48.102;11.620;2023-08-08T04:31:32;0.50;;;0.50;;
22388;SDS011;11362;48.102;11.620;2023-08-08T04:36:55;0.40;;;0.40;;
22388;SDS011;11362;48.102;11.620;2023-08-08T04:39:20;0.30;;;0.30;;
22388;SDS011;11362;48.102;11.620;2023-08-08T04:41:46;0.60;;;0.60;;
22388;SDS011;11362;48.102;11.620;2023-08-08T04:44:11;0.37;;;0.37;;
22388;SDS011;11362;48.102;11.620;2023-08-08T04:46:36;0.50;;;0.50;;
22388;SDS011;11362;48.102;11.620;2023-08-08T04:49:01;0.40;;;0.40;;
22388;SDS011;11362;48.102;11.620;2023-08-08T04:51:27;0.67;;;0.67;;
22388;SDS011;11362;48.102;11.620;2023-08-08T04:53:52;0.63;;;0.33;;
22388;SDS011;11362;48.102;11.620;2023-08-08T04:56:17;0.50;;;0.50;;
22388;SDS011;11362;48.102;11.620;2023-08-08T05:01:36;2.47;;;0.70;;
22388;SDS011;11362;48.102;11.620;2023-08-08T05:04:01;1.67;;;0.50;;
22388;SDS011;11362;48.102;11.620;2023-08-08T05:06:26;2.27;;;0.77;;
22388;SDS011;11362;48.102;11.620;2023-08-08T05:08:51;0.93;;;0.93;;
22388;SDS011;11362;48.102;11.620;2023-08-08T05:11:17;2.07;;;0.67;;
22388;SDS011;11362;48.102;11.620;2023-08-08T05:13:42;5.93;;;1.10;;
22388;SDS011;11362;48.102;11.620;2023-08-08T05:16:08;3.90;;;1.00;;
22388;SDS011;11362;48.102;11.620;2023-08-08T05:18:33;5.77;;;1.10;;
22388;SDS011;11362;48.102;11.620;2023-08-08T05:20:58;9.00;;;1.00;;
22388;SDS011;11362;48.102;11.620;2023-08-08T05:23:23;8.73;;;1.70;;
22388;SDS011;11362;48.102;11.620;2023-08-08T05:28:47;7.60;;;1.47;;
22388;SDS011;11362;48.102;11.620;2023-08-08T05:31:12;3.30;;;1.57;;
22388;SDS011;11362;48.102;11.620;2023-08-08T05:33:37;12.43;;;1.20;;
22388;SDS011;11362;48.102;11.620;2023-08-08T05:36:02;1.80;;;1.20;;
22388;SDS011;11362;48.102;11.620;2023-08-08T05:38:28;6.00;;;1.03;;
22388;SDS011;11362;48.102;11.620;2023-08-08T05:40:53;7.53;;;1.40;;
22388;SDS011;11362;48.102;11.620;2023-08-08T05:43:18;6.33;;;1.00;;
22388;SDS011;11362;48.102;11.620;2023-08-08T05:45:44;3.57;;;1.10;;
22388;SDS011;11362;48.102;11.620;2023-08-08T05:48:10;7.93;;;1.63;;
22388;SDS011;11362;48.102;11.620;2023-08-08T05:50:35;6.73;;;1.03;;
22388;SDS011;11362;48.102;11.620;2023-08-08T05:55:40;3.87;;;1.93;;
22388;SDS011;11362;48.102;11.620;2023-08-08T05:58:06;4.73;;;1.40;;
22388;SDS011;11362;48.102;11.620;2023-08-08T06:00:31;5.30;;;1.30;;
22388;SDS011;11362;48.102;11.620;2023-08-08T06:02:56;10.23;;;1.40;;
22388;SDS011;11362;48.102;11.620;2023-08-08T06:05:22;4.50;;;1.30;;
22388;SDS011;11362;48.102;11.620;2023-08-08T06:07:48;5.30;;;1.20;;
22388;SDS011;11362;48.102;11.620;2023-08-08T06:10:13;3.13;;;0.93;;
22388;SDS011;11362;48.102;11.620;2023-08-08T06:12:38;8.87;;;1.43;;
22388;SDS011;11362;48.102;11.620;2023-08-08T06:15:03;9.13;;;1.40;;
22388;SDS011;11362;48.102;11.620;2023-08-08T06:17:29;4.00;;;1.70;;
22388;SDS011;11362;48.102;11.620;2023-08-08T06:21:35;6.90;;;1.67;;
22388;SDS011;11362;48.102;11.620;2023-08-08T06:24:00;16.13;;;2.83;;
22388;SDS011;11362;48.102;11.620;2023-08-08T06:26:26;24.20;;;3.63;;
22388;SDS011;11362;48.102;11.620;2023-08-08T06:28:51;23.53;;;3.50;;
22388;SDS011;11362;48.102;11.620;2023-08-08T06:31:16;19.47;;;3.10;;
22388;SDS011;11362;48.102;11.620;2023-08-08T06:33:42;21.63;;;2.93;;
22388;SDS011;11362;48.102;11.620;2023-08-08T06:36:07;12.20;;;3.30;;
22388;SDS011;11362;48.102;11.620;2023-08-08T06:38:32;15.33;;;2.40;;
22388;SDS011;11362;48.102;11.620;2023-08-08T06:40:57;15.33;;;2.57;;
22388;SDS011;11362;48.102;11.620;2023-08-08T06:43:23;13.73;;;2.63;;
22388;SDS011;11362;48.102;11.620;2023-08-08T06:47:46;20.80;;;3.30;;
22388;SDS011;11362;48.102;11.620;2023-08-08T06:50:11;14.60;;;3.20;;
22388;SDS011;11362;48.102;11.620;2023-08-08T06:52:36;12.57;;;2.93;;
22388;SDS011;11362;48.102;11.620;2023-08-08T06:55:02;12.13;;;2.90;;
22388;SDS011;11362;48.102;11.620;2023-08-08T06:57:29;21.40;;;2.83;;
22388;SDS011;11362;48.102;11.620;2023-08-08T06:59:57;14.97;;;2.93;;
22388;SDS011;11362;48.102;11.620;2023-08-08T07:02:22;10.43;;;2.27;;
22388;SDS011;11362;48.102;11.620;2023-08-08T07:04:48;8.10;;;2.40;;
22388;SDS011;11362;48.102;11.620;2023-08-08T07:07:13;11.50;;;2.03;;
22388;SDS011;11362;48.102;11.620;2023-08-08T07:09:38;11.83;;;2.47;;
22388;SDS011;11362;48.102;11.620;2023-08-08T07:14:12;9.77;;;2.57;;
22388;SDS011;11362;48.102;11.620;2023-08-08T07:16:37;5.80;;;2.50;;
22388;SDS011;11362;48.102;11.620;2023-08-08T07:19:03;10.67;;;2.70;;
22388;SDS011;11362;48.102;11.620;2023-08-08T07:21:28;12.07;;;2.53;;
22388;SDS011;11362;48.102;11.620;2023-08-08T07:23:53;10.70;;;2.37;;
22388;SDS011;11362;48.102;11.620;2023-08-08T07:26:19;14.47;;;2.60;;
22388;SDS011;11362;48.102;11.620;2023-08-08T07:28:44;11.10;;;2.30;;
22388;SDS011;11362;48.102;11.620;2023-08-08T07:31:09;9.27;;;1.77;;
22388;SDS011;11362;48.102;11.620;2023-08-08T07:33:34;6.23;;;1.83;;
22388;SDS011;11362;48.102;11.620;2023-08-08T07:36:00;14.07;;;2.37;;
22388;SDS011;11362;48.102;11.620;2023-08-08T07:40:24;5.80;;;2.00;;
22388;SDS011;11362;48.102;11.620;2023-08-08T07:42:50;5.33;;;2.00;;
22388;SDS011;11362;48.102;11.620;2023-08-08T07:45:16;7.73;;;2.30;;
22388;SDS011;11362;48.102;11.620;2023-08-08T07:47:41;7.40;;;2.20;;
22388;SDS011;11362;48.102;11.620;2023-08-08T07:50:07;14.50;;;1.90;;
22388;SDS011;11362;48.102;11.620;2023-08-08T07:52:33;8.20;;;2.10;;
22388;SDS011;11362;48.102;11.620;2023-08-08T07:54:59;6.83;;;2.23;;
22388;SDS011;11362;48.102;11.620;2023-08-08T07:57:26;5.37;;;2.00;;
22388;SDS011;11362;48.102;11.620;2023-08-08T07:59:51;7.13;;;2.33;;
22388;SDS011;11362;48.102;11.620;2023-08-08T08:02:17;7.73;;;2.20;;
22388;SDS011;11362;48.102;11.620;2023-08-08T08:05:51;4.63;;;1.80;;
22388;SDS011;11362;48.102;11.620;2023-08-08T08:08:16;4.33;;;1.73;;
22388;SDS011;11362;48.102;11.620;2023-08-08T08:10:41;4.83;;;2.20;;
22388;SDS011;11362;48.102;11.620;2023-08-08T08:13:07;6.57;;;2.27;;
22388;SDS011;11362;48.102;11.620;2023-08-08T08:15:32;4.77;;;1.83;;
22388;SDS011;11362;48.102;11.620;2023-08-08T08:17:57;4.63;;;1.70;;
22388;SDS011;11362;48.102;11.620;2023-08-08T08:20:23;10.47;;;2.10;;
22388;SDS011;11362;48.102;11.620;2023-08-08T08:22:48;7.23;;;1.70;;
22388;SDS011;11362;48.102;11.620;2023-08-08T08:25:14;5.90;;;2.07;;
22388;SDS011;11362;48.102;11.620;2023-08-08T08:27:39;9.10;;;2.20;;
22388;SDS011;11362;48.102;11.620;2023-08-08T08:31:47;6.27;;;2.07;;
22388;SDS011;11362;48.102;11.620;2023-08-08T08:34:12;4.17;;;1.87;;
22388;SDS011;11362;48.102;11.620;2023-08-08T08:36:37;4.27;;;1.90;;
22388;SDS011;11362;48.102;11.620;2023-08-08T08:39:03;7.17;;;2.43;;
22388;SDS011;11362;48.102;11.620;2023-08-08T08:41:28;9.10;;;2.00;;
22388;SDS011;11362;48.102;11.620;2023-08-08T08:43:55;7.70;;;1.60;;
22388;SDS011;11362;48.102;11.620;2023-08-08T08:46:20;8.30;;;2.10;;
22388;SDS011;11362;48.102;11.620;2023-08-08T08:48:49;5.77;;;1.93;;
22388;SDS011;11362;48.102;11.620;2023-08-08T08:51:16;14.47;;;2.10;;
22388;SDS011;11362;48.102;11.620;2023-08-08T08:56:27;3.90;;;1.67;;
22388;SDS011;11362;48.102;11.620;2023-08-08T08:58:53;8.67;;;1.93;;
22388;SDS011;11362;48.102;11.620;2023-08-08T09:01:19;4.03;;;2.23;;
22388;SDS011;11362;48.102;11.620;2023-08-08T09:03:46;6.73;;;1.47;;
22388;SDS011;11362;48.102;11.620;2023-08-08T09:06:12;7.63;;;2.13;;
22388;SDS011;11362;48.102;11.620;2023-08-08T09:08:37;2.37;;;1.33;;
22388;SDS011;11362;48.102;11.620;2023-08-08T09:11:03;3.70;;;2.07;;
22388;SDS011;11362;48.102;11.620;2023-08-08T09:13:37;5.97;;;1.77;;
22388;SDS011;11362;48.102;11.620;2023-08-08T09:16:04;8.30;;;2.20;;
22388;SDS011;11362;48.102;11.620;2023-08-08T09:21:24;3.97;;;1.70;;
22388;SDS011;11362;48.102;11.620;2023-08-08T09:23:49;5.70;;;2.20;;
22388;SDS011;11362;48.102;11.620;2023-08-08T09:26:14;4.83;;;2.20;;
22388;SDS011;11362;48.102;11.620;2023-08-08T09:28:40;8.13;;;2.20;;
22388;SDS011;11362;48.102;11.620;2023-08-08T09:31:05;3.90;;;1.63;;
22388;SDS011;11362;48.102;11.620;2023-08-08T09:33:30;8.63;;;1.90;;
22388;SDS011;11362;48.102;11.620;2023-08-08T09:35:55;8.30;;;1.77;;
22388;SDS011;11362;48.102;11.620;2023-08-08T09:38:21;5.47;;;2.37;;
22388;SDS011;11362;48.102;11.620;2023-08-08T09:40:46;6.73;;;2.10;;
22388;SDS011;11362;48.102;11.620;2023-08-08T09:45:48;5.93;;;2.60;;
22388;SDS011;11362;48.102;11.620;2023-08-08T09:48:14;3.37;;;1.43;;
22388;SDS011;11362;48.102;11.620;2023-08-08T09:50:41;11.07;;;2.10;;
22388;SDS011;11362;48.102;11.620;2023-08-08T09:53:07;8.73;;;2.33;;
22388;SDS011;11362;48.102;11.620;2023-08-08T09:55:33;6.40;;;1.80;;
22388;SDS011;11362;48.102;11.620;2023-08-08T09:57:59;5.47;;;1.67;;
22388;SDS011;11362;48.102;11.620;2023-08-08T10:00:25;5.10;;;1.67;;
22388;SDS011;11362;48.102;11.620;2023-08-08T10:02:50;5.97;;;2.10;;
22388;SDS011;11362;48.102;11.620;2023-08-08T10:05:16;6.30;;;1.80;;
22388;SDS011;11362;48.102;11.620;2023-08-08T10:07:42;9.00;;;1.90;;
22388;SDS011;11362;48.102;11.620;2023-08-08T10:12:00;5.37;;;1.80;;
22388;SDS011;11362;48.102;11.620;2023-08-08T10:14:30;5.73;;;1.53;;
22388;SDS011;11362;48.102;11.620;2023-08-08T10:16:56;6.53;;;2.30;;
22388;SDS011;11362;48.102;11.620;2023-08-08T10:19:22;8.03;;;1.97;;
22388;SDS011;11362;48.102;11.620;2023-08-08T10:21:48;8.37;;;1.97;;
22388;SDS011;11362;48.102;11.620;2023-08-08T10:24:20;12.07;;;2.20;;
22388;SDS011;11362;48.102;11.620;2023-08-08T10:26:52;4.63;;;2.10;;
22388;SDS011;11362;48.102;11.620;2023-08-08T10:29:18;8.63;;;2.00;;
22388;SDS011;11362;48.102;11.620;2023-08-08T10:31:50;10.57;;;2.43;;
22388;SDS011;11362;48.102;11.620;2023-08-08T10:34:19;5.70;;;2.00;;
22388;SDS011;11362;48.102;11.620;2023-08-08T10:39:59;7.73;;;1.83;;
22388;SDS011;11362;48.102;11.620;2023-08-08T10:42:26;7.77;;;2.07;;
22388;SDS011;11362;48.102;11.620;2023-08-08T10:44:57;10.10;;;2.03;;
22388;SDS011;11362;48.102;11.620;2023-08-08T10:47:25;4.23;;;1.70;;
22388;SDS011;11362;48.102;11.620;2023-08-08T10:49:59;6.60;;;1.90;;
22388;SDS011;11362;48.102;11.620;2023-08-08T10:52:29;8.50;;;2.00;;
22388;SDS011;11362;48.102;11.620;2023-08-08T10:54:54;6.17;;;1.70;;
22388;SDS011;11362;48.102;11.620;2023-08-08T10:57:20;12.63;;;1.93;;
22388;SDS011;11362;48.102;11.620;2023-08-08T10:59:49;3.17;;;1.50;;
22388;SDS011;11362;48.102;11.620;2023-08-08T11:02:14;7.97;;;2.03;;
22388;SDS011;11362;48.102;11.620;2023-08-08T11:07:52;9.17;;;2.40;;
22388;SDS011;11362;48.102;11.620;2023-08-08T11:10:18;8.60;;;2.50;;
22388;SDS011;11362;48.102;11.620;2023-08-08T11:13:02;8.80;;;2.00;;
22388;SDS011;11362;48.102;11.620;2023-08-08T11:15:29;7.27;;;2.17;;
22388;SDS011;11362;48.102;11.620;2023-08-08T11:17:56;5.37;;;1.60;;
22388;SDS011;11362;48.102;11.620;2023-08-08T11:20:22;8.23;;;2.37;;
22388;SDS011;11362;48.102;11.620;2023-08-08T11:22:55;12.03;;;2.10;;
22388;SDS011;11362;48.102;11.620;2023-08-08T11:25:21;9.73;;;2.37;;
22388;SDS011;11362;48.102;11.620;2023-08-08T11:27:53;8.43;;;2.17;;
22388;SDS011;11362;48.102;11.620;2023-08-08T11:30:19;7.70;;;2.10;;
22388;SDS011;11362;48.102;11.620;2023-08-08T11:34:32;5.67;;;2.13;;
22388;SDS011;11362;48.102;11.620;2023-08-08T11:36:59;8.60;;;2.10;;
22388;SDS011;11362;48.102;11.620;2023-08-08T11:39:25;10.90;;;2.23;;
22388;SDS011;11362;48.102;11.620;2023-08-08T11:41:51;6.47;;;1.93;;
22388;SDS011;11362;48.102;11.620;2023-08-08T11:44:17;5.97;;;2.20;;
22388;SDS011;11362;48.102;11.620;2023-08-08T11:46:46;3.53;;;1.77;;
22388;SDS011;11362;48.102;11.620;2023-08-08T11:49:11;6.83;;;2.23;;
22388;SDS011;11362;48.102;11.620;2023-08-08T11:51:39;8.67;;;2.13;;
22388;SDS011;11362;48.102;11.620;2023-08-08T11:54:08;6.53;;;1.67;;
22388;SDS011;11362;48.102;11.620;2023-08-08T11:56:34;5.30;;;2.17;;
22388;SDS011;11362;48.102;11.620;2023-08-08T12:01:37;8.27;;;2.03;;
22388;SDS011;11362;48.102;11.620;2023-08-08T12:04:07;8.17;;;2.17;;
22388;SDS011;11362;48.102;11.620;2023-08-08T12:06:33;7.30;;;2.57;;
22388;SDS011;11362;48.102;11.620;2023-08-08T12:09:02;2.77;;;1.73;;
22388;SDS011;11362;48.102;11.620;2023-08-08T12:11:27;5.33;;;2.17;;
22388;SDS011;11362;48.102;11.620;2023-08-08T12:13:57;7.00;;;1.90;;
22388;SDS011;11362;48.102;11.620;2023-08-08T12:16:27;5.53;;;1.73;;
22388;SDS011;11362;48.102;11.620;2023-08-08T12:18:54;3.97;;;2.00;;
22388;SDS011;11362;48.102;11.620;2023-08-08T12:21:19;3.07;;;1.20;;
22388;SDS011;11362;48.102;11.620;2023-08-08T12:23:44;7.50;;;2.13;;
22388;SDS011;11362;48.102;11.620;2023-08-08T12:28:46;6.93;;;1.47;;
22388;SDS011;11362;48.102;11.620;2023-08-08T12:31:12;3.43;;;1.50;;
22388;SDS011;11362;48.102;11.620;2023-08-08T12:33:37;2.43;;;1.20;;
22388;SDS011;11362;48.102;11.620;2023-08-08T12:36:02;6.23;;;1.67;;
22388;SDS011;11362;48.102;11.620;2023-08-08T12:38:28;3.83;;;1.87;;
22388;SDS011;11362;48.102;11.620;2023-08-08T12:40:53;5.73;;;2.03;;
22388;SDS011;11362;48.102;11.620;2023-08-08T12:43:18;3.57;;;1.20;;
22388;SDS011;11362;48.102;11.620;2023-08-08T12:45:44;7.60;;;1.53;;
22388;SDS011;11362;48.102;11.620;2023-08-08T12:48:10;4.47;;;1.23;;
22388;SDS011;11362;48.102;11.620;2023-08-08T12:50:36;2.47;;;2.13;;
22388;SDS011;11362;48.102;11.620;2023-08-08T12:55:57;4.03;;;1.80;;
22388;SDS011;11362;48.102;11.620;2023-08-08T12:58:23;3.93;;;1.43;;
22388;SDS011;11362;48.102;11.620;2023-08-08T13:00:48;3.87;;;1.37;;
22388;SDS011;11362;48.102;11.620;2023-08-08T13:03:13;3.73;;;1.57;;
22388;SDS011;11362;48.102;11.620;2023-08-08T13:05:38;3.77;;;1.53;;
22388;SDS011;11362;48.102;11.620;2023-08-08T13:08:04;2.73;;;1.27;;
22388;SDS011;11362;48.102;11.620;2023-08-08T13:10:29;3.57;;;2.13;;
22388;SDS011;11362;48.102;11.620;2023-08-08T13:12:54;5.00;;;1.73;;
22388;SDS011;11362;48.102;11.620;2023-08-08T13:15:20;2.03;;;1.43;;
22388;SDS011;11362;48.102;11.620;2023-08-08T13:17:45;1.93;;;1.03;;
22388;SDS011;11362;48.102;11.620;2023-08-08T13:21:53;4.47;;;1.33;;
22388;SDS011;11362;48.102;11.620;2023-08-08T13:24:19;3.20;;;1.70;;
22388;SDS011;11362;48.102;11.620;2023-08-08T13:26:45;4.37;;;1.47;;
22388;SDS011;11362;48.102;11.620;2023-08-08T13:29:11;2.83;;;1.30;;
22388;SDS011;11362;48.102;11.620;2023-08-08T13:31:36;2.40;;;1.30;;
22388;SDS011;11362;48.102;11.620;2023-08-08T13:34:02;1.50;;;1.30;;
22388;SDS011;11362;48.102;11.620;2023-08-08T13:36:27;2.63;;;1.40;;
22388;SDS011;11362;48.102;11.620;2023-08-08T13:38:52;6.73;;;1.50;;
22388;SDS011;11362;48.102;11.620;2023-08-08T13:41:18;3.30;;;1.40;;
22388;SDS011;11362;48.102;11.620;2023-08-08T13:43:43;4.63;;;1.90;;
22388;SDS011;11362;48.102;11.620;2023-08-08T13:49:06;3.87;;;1.33;;
22388;SDS011;11362;48.102;11.620;2023-08-08T13:51:31;7.80;;;1.60;;
22388;SDS011;11362;48.102;11.620;2023-08-08T13:53:56;5.40;;;2.17;;
22388;SDS011;11362;48.102;11.620;2023-08-08T13:56:22;4.13;;;1.10;;
22388;SDS011;11362;48.102;11.620;2023-08-08T13:58:47;4.50;;;1.70;;
22388;SDS011;11362;48.102;11.620;2023-08-08T14:01:14;3.03;;;1.13;;
22388;SDS011;11362;48.102;11.620;2023-08-08T14:03:39;2.40;;;1.17;;
22388;SDS011;11362;48.102;11.620;2023-08-08T14:06:04;3.40;;;1.30;;
22388;SDS011;11362;48.102;11.620;2023-08-08T14:08:29;2.23;;;1.13;;
22388;SDS011;11362;48.102;11.620;2023-08-08T14:10:55;4.47;;;1.47;;
22388;SDS011;11362;48.102;11.620;2023-08-08T14:15:01;3.53;;;1.40;;
22388;SDS011;11362;48.102;11.620;2023-08-08T14:17:27;5.17;;;1.40;;
22388;SDS011;11362;48.102;11.620;2023-08-08T14:19:52;7.40;;;1.67;;
22388;SDS011;11362;48.102;11.620;2023-08-08T14:22:17;3.43;;;1.23;;
22388;SDS011;11362;48.102;11.620;2023-08-08T14:24:43;7.13;;;1.60;;
22388;SDS011;11362;48.102;11.620;2023-08-08T14:27:08;6.23;;;1.53;;
22388;SDS011;11362;48.102;11.620;2023-08-08T14:29:33;7.20;;;1.73;;
22388;SDS011;11362;48.102;11.620;2023-08-08T14:31:59;10.57;;;1.90;;
22388;SDS011;11362;48.102;11.620;2023-08-08T14:34:30;10.70;;;2.27;;
22388;SDS011;11362;48.102;11.620;2023-08-08T14:36:56;4.57;;;1.73;;
22388;SDS011;11362;48.102;11.620;2023-08-08T14:42:13;6.63;;;2.10;;
22388;SDS011;11362;48.102;11.620;2023-08-08T14:44:38;26.07;;;3.50;;
22388;SDS011;11362;48.102;11.620;2023-08-08T14:47:03;10.03;;;2.87;;
22388;SDS011;11362;48.102;11.620;2023-08-08T14:49:29;8.57;;;2.83;;
22388;SDS011;11362;48.102;11.620;2023-08-08T14:51:54;14.77;;;3.20;;
22388;SDS011;11362;48.102;11.620;2023-08-08T14:54:20;9.97;;;2.20;;
22388;SDS011;11362;48.102;11.620;2023-08-08T14:56:45;10.37;;;2.20;;
22388;SDS011;11362;48.102;11.620;2023-08-08T14:59:10;14.43;;;2.77;;
22388;SDS011;11362;48.102;11.620;2023-08-08T15:01:35;23.83;;;3.30;;
22388;SDS011;11362;48.102;11.620;2023-08-08T15:06:53;13.07;;;2.70;;
22388;SDS011;11362;48.102;11.620;2023-08-08T15:09:18;10.13;;;2.97;;
22388;SDS011;11362;48.102;11.620;2023-08-08T15:11:44;15.53;;;3.00;;
22388;SDS011;11362;48.102;11.620;2023-08-08T15:14:09;11.73;;;2.53;;
22388;SDS011;11362;48.102;11.620;2023-08-08T15:16:34;11.07;;;2.37;;
22388;SDS011;11362;48.102;11.620;2023-08-08T15:19:01;13.07;;;2.60;;
22388;SDS011;11362;48.102;11.620;2023-08-08T15:21:26;11.03;;;2.70;;
22388;SDS011;11362;48.102;11.620;2023-08-08T15:23:51;9.70;;;2.80;;
22388;SDS011;11362;48.102;11.620;2023-08-08T15:26:17;15.00;;;3.53;;
22388;SDS011;11362;48.102;11.620;2023-08-08T15:28:42;12.37;;;3.03;;
22388;SDS011;11362;48.102;11.620;2023-08-08T15:33:40;15.70;;;2.97;;
22388;SDS011;11362;48.102;11.620;2023-08-08T15:36:05;16.97;;;3.63;;
22388;SDS011;11362;48.102;11.620;2023-08-08T15:38:30;14.93;;;4.40;;
22388;SDS011;11362;48.102;11.620;2023-08-08T15:40:56;31.90;;;19.83;;
22388;SDS011;11362;48.102;11.620;2023-08-08T15:43:21;42.03;;;30.60;;
22388;SDS011;11362;48.102;11.620;2023-08-08T15:45:47;61.80;;;30.43;;
22388;SDS011;11362;48.102;11.620;2023-08-08T15:48:12;30.17;;;16.93;;
22388;SDS011;11362;48.102;11.620;2023-08-08T15:50:37;39.77;;;19.17;;
22388;SDS011;11362;48.102;11.620;2023-08-08T15:53:03;41.40;;;19.27;;